createdAt,value
2019-03-24T00:02:04.105Z,6.42
2019-03-24T00:04:34.599Z,2.20
2019-03-24T00:07:05.414Z,6.85
2019-03-24T00:09:35.924Z,3.47
2019-03-24T00:12:06.511Z,2.22
2019-03-24T00:14:37.178Z,3.65
2019-03-24T00:17:07.632Z,2.65
2019-03-24T00:19:38.045Z,5.22
2019-03-24T00:22:08.507Z,3.80
2019-03-24T00:24:39.039Z,2.60
2019-03-24T00:27:09.513Z,1.52
2019-03-24T00:29:39.958Z,1.40
2019-03-24T00:32:10.455Z,1.62
2019-03-24T00:34:40.980Z,2.40
2019-03-24T00:37:11.488Z,5.70
2019-03-24T00:39:42.226Z,1.60
2019-03-24T00:42:12.699Z,2.27
2019-03-24T00:44:43.449Z,2.47
2019-03-24T00:47:13.784Z,1.55
2019-03-24T00:49:44.321Z,2.12
2019-03-24T00:52:14.843Z,2.90
2019-03-24T00:54:45.370Z,4.97
2019-03-24T00:57:15.866Z,3.02
2019-03-24T00:59:46.388Z,1.62
2019-03-24T01:02:16.840Z,1.85
2019-03-24T01:04:47.612Z,3.12
2019-03-24T01:07:17.935Z,3.52
2019-03-24T01:09:49.201Z,3.92
2019-03-24T01:12:19.667Z,3.17
2019-03-24T01:14:50.017Z,2.47
2019-03-24T01:17:20.331Z,4.50
2019-03-24T01:19:50.803Z,3.02
2019-03-24T01:22:21.270Z,3.42
2019-03-24T01:24:51.812Z,2.37
2019-03-24T01:27:22.193Z,2.35
2019-03-24T01:29:53.163Z,2.52
2019-03-24T01:32:23.561Z,4.03
2019-03-24T01:34:54.037Z,3.00
2019-03-24T01:37:24.582Z,3.70
2019-03-24T01:39:55.083Z,3.85
2019-03-24T01:42:25.479Z,2.27
2019-03-24T01:44:55.948Z,3.47
2019-03-24T01:47:26.442Z,4.05
2019-03-24T01:49:56.897Z,4.33
2019-03-24T01:52:27.245Z,3.27
2019-03-24T01:54:57.763Z,2.47
2019-03-24T01:57:29.764Z,1.67
2019-03-24T02:00:00.320Z,2.58
2019-03-24T02:02:30.817Z,5.70
2019-03-24T02:05:01.408Z,4.33
2019-03-24T02:07:33.070Z,3.52
2019-03-24T02:10:03.756Z,3.05
2019-03-24T02:12:34.139Z,1.60
2019-03-24T02:15:06.031Z,3.22
2019-03-24T02:17:36.512Z,4.22
2019-03-24T02:20:07.064Z,3.05
2019-03-24T02:22:37.569Z,3.08
2019-03-24T02:25:08.558Z,2.90
2019-03-24T02:27:39.020Z,2.62
2019-03-24T02:30:10.175Z,2.35
2019-03-24T02:32:40.766Z,3.77
2019-03-24T02:35:11.565Z,3.02
2019-03-24T02:37:42.328Z,1.62
2019-03-24T02:40:12.891Z,2.75
2019-03-24T02:42:43.196Z,4.80
2019-03-24T02:45:13.925Z,3.40
2019-03-24T02:47:44.517Z,2.72
2019-03-24T02:50:15.073Z,2.52
2019-03-24T02:52:47.922Z,5.17
2019-03-24T02:55:18.486Z,2.33
2019-03-24T02:57:48.944Z,2.77
2019-03-24T03:00:19.881Z,2.47
2019-03-24T03:02:50.594Z,4.35
2019-03-24T03:05:21.087Z,5.12
2019-03-24T03:07:51.390Z,3.77
2019-03-24T03:10:21.837Z,3.22
2019-03-24T03:12:52.121Z,6.37
2019-03-24T03:15:22.443Z,2.45
2019-03-24T03:17:52.907Z,2.25
2019-03-24T03:20:23.365Z,2.98
2019-03-24T03:22:53.744Z,3.27
2019-03-24T03:25:24.055Z,1.70
2019-03-24T03:27:54.400Z,5.22
2019-03-24T03:30:24.737Z,2.87
2019-03-24T03:32:55.415Z,3.62
2019-03-24T03:35:25.894Z,3.65
2019-03-24T03:37:56.480Z,4.47
2019-03-24T03:40:26.925Z,2.22
2019-03-24T03:42:57.273Z,3.33
2019-03-24T03:45:29.158Z,2.95
2019-03-24T03:47:59.473Z,1.10
2019-03-24T03:50:30.056Z,3.22
2019-03-24T03:53:00.463Z,1.67
2019-03-24T03:55:31.158Z,3.95
2019-03-24T03:58:01.600Z,6.00
2019-03-24T04:00:36.192Z,4.85
2019-03-24T04:05:36.856Z,8.33
2019-03-24T04:08:07.462Z,5.97
2019-03-24T04:10:37.769Z,8.23
2019-03-24T04:13:08.143Z,5.58
2019-03-24T04:15:38.517Z,13.13
2019-03-24T04:18:09.100Z,14.28
2019-03-24T04:20:39.713Z,11.95
2019-03-24T04:23:10.084Z,15.23
2019-03-24T04:25:40.843Z,7.42
2019-03-24T04:28:11.503Z,4.90
2019-03-24T04:30:41.983Z,15.60
2019-03-24T04:33:12.296Z,9.38
2019-03-24T04:35:42.932Z,5.10
2019-03-24T04:38:13.252Z,3.95
2019-03-24T04:40:43.565Z,10.13
2019-03-24T04:43:13.946Z,5.53
2019-03-24T04:45:44.722Z,3.90
2019-03-24T04:48:15.081Z,2.08
2019-03-24T04:50:45.491Z,13.53
2019-03-24T04:53:15.840Z,12.40
2019-03-24T04:55:46.446Z,9.33
2019-03-24T04:58:16.930Z,12.03
2019-03-24T05:00:47.376Z,6.72
2019-03-24T05:03:17.933Z,6.53
2019-03-24T05:05:49.133Z,8.08
2019-03-24T05:08:20.133Z,13.85
2019-03-24T05:10:50.463Z,13.75
2019-03-24T05:13:21.276Z,3.15
2019-03-24T05:15:51.655Z,2.75
2019-03-24T05:18:22.584Z,3.20
2019-03-24T05:20:52.865Z,5.28
2019-03-24T05:23:23.494Z,4.92
2019-03-24T05:25:53.991Z,4.00
2019-03-24T05:28:24.931Z,5.60
2019-03-24T05:30:55.180Z,14.40
2019-03-24T05:33:25.509Z,5.70
2019-03-24T05:35:57.181Z,3.98
2019-03-24T05:38:27.942Z,4.33
2019-03-24T05:40:58.238Z,4.65
2019-03-24T05:43:28.720Z,9.08
2019-03-24T05:45:58.992Z,4.08
2019-03-24T05:48:29.335Z,3.75
2019-03-24T05:50:59.691Z,10.05
2019-03-24T05:53:30.858Z,10.13
2019-03-24T05:56:01.577Z,2.60
2019-03-24T05:58:32.317Z,4.37
2019-03-24T06:01:02.767Z,4.40
2019-03-24T06:03:33.078Z,7.62
2019-03-24T06:06:03.712Z,6.80
2019-03-24T06:08:35.775Z,2.25
2019-03-24T06:11:07.732Z,2.95
2019-03-24T06:13:38.177Z,4.60
2019-03-24T06:16:08.553Z,4.53
2019-03-24T06:18:39.942Z,1.12
2019-03-24T06:21:10.234Z,2.52
2019-03-24T06:23:40.693Z,5.78
2019-03-24T06:26:11.231Z,7.58
2019-03-24T06:28:42.437Z,5.40
2019-03-24T06:31:12.932Z,3.35
2019-03-24T06:33:43.413Z,5.25
2019-03-24T06:36:13.763Z,5.85
2019-03-24T06:38:44.152Z,3.20
2019-03-24T06:41:14.529Z,2.62
2019-03-24T06:43:45.205Z,1.82
2019-03-24T06:46:15.791Z,1.80
2019-03-24T06:48:46.482Z,3.40
2019-03-24T06:51:17.120Z,6.25
2019-03-24T06:53:47.836Z,2.50
2019-03-24T06:56:18.394Z,3.15
2019-03-24T06:58:48.847Z,9.93
2019-03-24T07:01:20.881Z,5.05
2019-03-24T07:03:51.206Z,10.90
2019-03-24T07:06:21.571Z,4.55
2019-03-24T07:08:51.985Z,9.10
2019-03-24T07:11:23.047Z,5.65
2019-03-24T07:13:53.325Z,7.70
2019-03-24T07:16:24.058Z,6.28
2019-03-24T07:18:54.626Z,6.75
2019-03-24T07:21:25.053Z,6.60
2019-03-24T07:23:55.956Z,10.70
2019-03-24T07:26:26.568Z,4.10
2019-03-24T07:28:56.854Z,4.62
2019-03-24T07:31:27.232Z,5.47
2019-03-24T07:33:57.604Z,4.92
2019-03-24T07:36:27.927Z,4.50
2019-03-24T07:38:58.540Z,2.77
2019-03-24T07:41:29.024Z,7.75
2019-03-24T07:43:59.455Z,10.18
2019-03-24T07:46:30.109Z,5.40
2019-03-24T07:49:00.454Z,6.17
2019-03-24T07:51:30.733Z,8.28
2019-03-24T07:54:01.154Z,17.07
2019-03-24T07:56:31.511Z,14.73
2019-03-24T08:04:54.417Z,7.17
2019-03-24T08:07:24.914Z,14.68
2019-03-24T08:09:57.910Z,12.18
2019-03-24T08:12:28.702Z,10.48
2019-03-24T08:15:00.068Z,6.50
2019-03-24T08:17:30.604Z,14.87
2019-03-24T08:20:12.512Z,10.32
2019-03-24T08:22:43.010Z,10.68
2019-03-24T08:25:13.560Z,8.13
2019-03-24T08:27:44.006Z,6.75
2019-03-24T08:30:16.082Z,6.55
2019-03-24T08:32:46.573Z,9.93
2019-03-24T08:35:17.331Z,6.62
2019-03-24T08:37:47.941Z,7.55
2019-03-24T08:40:18.882Z,8.30
2019-03-24T08:42:49.369Z,6.72
2019-03-24T08:45:28.092Z,5.20
2019-03-24T08:47:59.112Z,8.50
2019-03-24T08:50:29.920Z,6.22
2019-03-24T08:53:00.360Z,5.90
2019-03-24T08:55:32.571Z,4.67
2019-03-24T08:58:03.414Z,6.85
2019-03-24T09:00:34.456Z,8.28
2019-03-24T09:03:05.225Z,6.62
2019-03-24T09:05:35.792Z,11.88
2019-03-24T09:08:06.439Z,8.13
2019-03-24T09:10:36.991Z,5.22
2019-03-24T09:13:07.495Z,6.50
2019-03-24T09:15:38.167Z,7.08
2019-03-24T09:18:08.588Z,6.85
2019-03-24T09:20:41.811Z,3.90
2019-03-24T09:23:11.493Z,8.90
2019-03-24T09:25:41.831Z,9.60
2019-03-24T09:28:12.353Z,9.85
2019-03-24T09:30:42.697Z,22.17
2019-03-24T09:33:13.411Z,9.63
2019-03-24T09:35:43.786Z,8.83
2019-03-24T09:38:14.212Z,5.17
2019-03-24T09:40:44.698Z,6.83
2019-03-24T09:43:15.219Z,11.53
2019-03-24T09:45:45.597Z,6.75
2019-03-24T09:48:15.982Z,8.45
2019-03-24T09:50:46.343Z,9.60
2019-03-24T09:53:17.148Z,8.83
2019-03-24T09:55:47.532Z,14.98
2019-03-24T09:58:19.060Z,6.10
2019-03-24T10:00:50.079Z,4.67
2019-03-24T10:03:20.404Z,9.70
2019-03-24T10:05:50.847Z,5.25
2019-03-24T10:08:22.042Z,6.25
2019-03-24T10:10:52.340Z,4.87
2019-03-24T10:13:22.676Z,5.10
2019-03-24T10:15:53.154Z,5.17
2019-03-24T10:18:23.459Z,3.80
2019-03-24T10:20:54.123Z,3.95
2019-03-24T10:23:24.500Z,3.52
2019-03-24T10:25:55.659Z,5.72
2019-03-24T10:28:32.738Z,3.58
2019-03-24T10:31:03.435Z,5.15
2019-03-24T10:33:33.887Z,5.78
2019-03-24T10:36:04.308Z,7.87
2019-03-24T10:38:34.744Z,3.95
2019-03-24T10:41:05.277Z,3.60
2019-03-24T10:43:35.653Z,4.08
2019-03-24T10:46:06.781Z,6.40
2019-03-24T10:48:37.159Z,3.98
2019-03-24T10:51:07.504Z,4.17
2019-03-24T10:53:37.981Z,3.95
2019-03-24T10:56:09.415Z,4.90
2019-03-24T10:58:39.783Z,4.92
2019-03-24T11:01:10.187Z,2.65
2019-03-24T11:03:40.790Z,7.62
2019-03-24T11:06:11.252Z,10.20
2019-03-24T11:08:42.947Z,6.60
2019-03-24T11:11:13.362Z,5.70
2019-03-24T11:13:43.740Z,3.10
2019-03-24T11:16:14.470Z,7.90
2019-03-24T11:18:44.950Z,5.35
2019-03-24T11:21:15.308Z,3.55
2019-03-24T11:23:45.859Z,3.85
2019-03-24T11:26:16.283Z,6.08
2019-03-24T11:28:46.733Z,7.50
2019-03-24T11:31:17.370Z,4.92
2019-03-24T11:33:48.608Z,5.45
2019-03-24T11:36:21.164Z,3.08
2019-03-24T11:38:55.549Z,3.77
2019-03-24T11:43:56.619Z,2.58
2019-03-24T11:46:29.180Z,3.77
2019-03-24T11:49:00.691Z,2.27
2019-03-24T11:51:31.635Z,3.72
2019-03-24T11:54:02.662Z,3.83
2019-03-24T11:56:33.714Z,8.40
2019-03-24T11:59:06.341Z,5.25
2019-03-24T12:01:38.436Z,7.45
2019-03-24T12:04:10.427Z,2.98
2019-03-24T12:06:41.642Z,4.85
2019-03-24T12:09:15.194Z,7.22
2019-03-24T12:11:46.670Z,7.70
2019-03-24T12:14:18.848Z,8.33
2019-03-24T12:17:09.376Z,3.42
2019-03-24T12:19:40.661Z,4.97
2019-03-24T12:22:33.557Z,5.28
2019-03-24T12:25:11.490Z,5.53
2019-03-24T12:28:12.424Z,6.15
2019-03-24T12:30:55.099Z,4.33
2019-03-24T12:33:26.790Z,10.45
2019-03-24T12:36:11.690Z,8.40
2019-03-24T12:39:01.294Z,6.90
2019-03-24T12:41:27.861Z,5.53
2019-03-24T12:44:24.988Z,6.50
2019-03-24T12:46:56.404Z,3.70
2019-03-24T12:49:32.049Z,4.60
2019-03-24T12:52:06.194Z,2.92
2019-03-24T12:54:41.782Z,3.87
2019-03-24T12:57:13.369Z,4.47
2019-03-24T12:59:45.123Z,2.12
2019-03-24T13:02:15.447Z,3.92
2019-03-24T13:04:46.292Z,3.27
2019-03-24T13:07:16.644Z,1.80
2019-03-24T13:09:47.026Z,2.17
2019-03-24T13:12:17.438Z,2.15
2019-03-24T13:14:49.449Z,1.35
2019-03-24T13:17:19.771Z,2.95
2019-03-24T13:19:50.288Z,2.17
2019-03-24T13:22:21.031Z,1.60
2019-03-24T13:24:51.619Z,1.62
2019-03-24T13:27:21.948Z,2.95
2019-03-24T13:29:53.315Z,1.57
2019-03-24T13:32:23.785Z,1.22
2019-03-24T13:34:54.600Z,2.05
2019-03-24T13:37:25.312Z,2.45
2019-03-24T13:39:55.810Z,2.30
2019-03-24T13:42:26.191Z,0.98
2019-03-24T13:44:56.656Z,1.07
2019-03-24T13:47:30.447Z,2.62
2019-03-24T13:50:00.876Z,3.75
2019-03-24T13:52:31.310Z,3.22
2019-03-24T13:55:01.848Z,7.22
2019-03-24T13:57:33.022Z,2.25
2019-03-24T14:00:03.934Z,2.65
2019-03-24T14:02:35.558Z,4.72
2019-03-24T14:05:07.495Z,3.08
2019-03-24T14:07:38.709Z,3.75
2019-03-24T14:10:09.524Z,7.78
2019-03-24T14:12:39.928Z,4.37
2019-03-24T14:15:10.512Z,3.77
2019-03-24T14:17:40.972Z,4.80
2019-03-24T14:20:11.600Z,4.20
2019-03-24T14:22:42.026Z,6.33
2019-03-24T14:25:12.591Z,7.30
2019-03-24T14:27:42.947Z,10.10
2019-03-24T14:30:27.193Z,5.92
2019-03-24T14:32:57.599Z,8.15
2019-03-24T14:35:27.997Z,4.60
2019-03-24T14:37:58.304Z,7.53
2019-03-24T14:40:28.885Z,6.35
2019-03-24T14:42:59.622Z,8.95
2019-03-24T14:45:29.963Z,6.25
2019-03-24T14:48:00.594Z,3.58
2019-03-24T14:50:30.951Z,1.32
2019-03-24T14:53:01.326Z,4.97
2019-03-24T14:55:31.706Z,3.08
2019-03-24T14:58:02.269Z,3.02
2019-03-24T15:00:37.855Z,2.47
2019-03-24T15:03:08.430Z,2.90
2019-03-24T15:05:38.908Z,1.55
2019-03-24T15:08:09.914Z,2.00
2019-03-24T15:10:40.561Z,5.55
2019-03-24T15:13:11.212Z,4.22
2019-03-24T15:15:41.661Z,1.72
2019-03-24T15:18:12.344Z,0.50
2019-03-24T15:20:42.682Z,1.52
2019-03-24T15:23:12.961Z,2.10
2019-03-24T15:25:43.340Z,2.20
2019-03-24T15:28:13.768Z,3.62
2019-03-24T15:30:44.491Z,2.65
2019-03-24T15:33:14.894Z,4.75
2019-03-24T15:35:45.329Z,2.72
2019-03-24T15:38:15.666Z,2.58
2019-03-24T15:40:49.497Z,3.52
2019-03-24T15:43:18.603Z,3.65
2019-03-24T15:45:51.168Z,4.00
2019-03-24T15:48:21.966Z,4.72
2019-03-24T15:50:52.351Z,4.97
2019-03-24T15:53:22.777Z,6.30
2019-03-24T15:55:53.078Z,1.50
2019-03-24T15:58:23.524Z,4.47
2019-03-24T16:00:54.147Z,1.92
2019-03-24T16:03:24.614Z,8.63
2019-03-24T16:05:56.407Z,6.10
2019-03-24T16:08:27.337Z,3.65
2019-03-24T16:10:57.798Z,3.80
2019-03-24T16:13:28.545Z,2.33
2019-03-24T16:15:58.994Z,1.60
2019-03-24T16:18:29.379Z,2.67
2019-03-24T16:20:59.801Z,2.25
2019-03-24T16:23:30.270Z,3.02
2019-03-24T16:26:00.856Z,1.25
2019-03-24T16:28:31.261Z,1.10
2019-03-24T16:31:01.757Z,3.02
2019-03-24T16:33:32.045Z,2.95
2019-03-24T16:36:02.704Z,1.47
2019-03-24T16:38:33.104Z,2.15
2019-03-24T16:41:03.664Z,2.22
2019-03-24T16:43:34.015Z,0.90
2019-03-24T16:46:04.307Z,2.20
2019-03-24T16:48:37.012Z,3.27
2019-03-24T16:51:06.852Z,3.92
2019-03-24T16:53:37.240Z,1.70
2019-03-24T16:56:07.690Z,0.98
2019-03-24T16:58:38.320Z,1.65
2019-03-24T17:01:08.737Z,1.72
2019-03-24T17:03:39.449Z,2.08
2019-03-24T17:06:10.313Z,2.45
2019-03-24T17:08:41.024Z,0.53
2019-03-24T17:11:11.712Z,1.70
2019-03-24T17:13:43.175Z,1.25
2019-03-24T17:16:13.642Z,3.35
2019-03-24T17:18:43.956Z,0.90
2019-03-24T17:21:14.349Z,0.78
2019-03-24T17:23:44.664Z,5.53
2019-03-24T17:26:15.090Z,4.72
2019-03-24T17:28:47.020Z,3.05
2019-03-24T17:31:18.232Z,0.50
2019-03-24T17:33:48.530Z,1.37
2019-03-24T17:36:19.173Z,1.07
2019-03-24T17:38:50.444Z,1.87
2019-03-24T17:41:21.087Z,2.15
2019-03-24T17:43:51.474Z,1.77
2019-03-24T17:46:21.829Z,2.05
2019-03-24T17:48:52.555Z,1.10
2019-03-24T17:51:22.934Z,0.68
2019-03-24T17:53:53.523Z,3.50
2019-03-24T17:56:23.973Z,1.50
2019-03-24T17:58:54.414Z,3.75
2019-03-24T18:01:25.107Z,2.80
2019-03-24T18:03:55.536Z,0.93
2019-03-24T18:06:26.587Z,2.25
2019-03-24T18:08:57.055Z,1.12
2019-03-24T18:11:27.957Z,1.32
2019-03-24T18:13:58.362Z,0.80
2019-03-24T18:16:29.096Z,1.60
2019-03-24T18:19:00.577Z,1.07
2019-03-24T18:21:31.371Z,2.42
2019-03-24T18:24:01.837Z,2.30
2019-03-24T18:26:32.148Z,1.42
2019-03-24T18:29:02.571Z,1.37
2019-03-24T18:31:33.512Z,1.27
2019-03-24T18:34:03.832Z,1.17
2019-03-24T18:36:34.276Z,1.85
2019-03-24T18:39:07.628Z,1.45
2019-03-24T18:41:38.186Z,2.20
2019-03-24T18:44:08.600Z,1.67
2019-03-24T18:46:39.014Z,2.87
2019-03-24T18:49:09.503Z,4.33
2019-03-24T18:51:40.020Z,3.22
2019-03-24T18:54:10.382Z,2.58
2019-03-24T18:56:40.930Z,1.98
2019-03-24T18:59:11.520Z,3.60
2019-03-24T19:01:41.840Z,2.42
2019-03-24T19:04:12.270Z,3.08
2019-03-24T19:06:43.407Z,1.10
2019-03-24T19:09:13.831Z,1.82
2019-03-24T19:11:44.227Z,1.72
2019-03-24T19:14:14.741Z,2.70
2019-03-24T19:16:45.304Z,1.60
2019-03-24T19:19:15.594Z,2.20
2019-03-24T19:21:46.148Z,3.22
2019-03-24T19:24:16.594Z,2.02
2019-03-24T19:26:47.643Z,0.88
2019-03-24T19:29:18.368Z,2.92
2019-03-24T19:31:49.064Z,2.00
2019-03-24T19:34:19.504Z,3.15
2019-03-24T19:36:50.440Z,3.47
2019-03-24T19:39:21.004Z,3.52
2019-03-24T19:41:51.359Z,1.42
2019-03-24T19:44:21.971Z,2.27
2019-03-24T19:46:52.541Z,2.27
2019-03-24T19:49:22.920Z,1.95
2019-03-24T19:51:53.333Z,2.12
2019-03-24T19:54:23.721Z,3.87
2019-03-24T19:56:54.018Z,1.82
2019-03-24T19:59:24.461Z,1.75
2019-03-24T20:01:54.891Z,1.95
2019-03-24T20:04:25.381Z,6.10
2019-03-24T20:06:56.083Z,2.05
2019-03-24T20:09:26.773Z,2.20
2019-03-24T20:11:57.547Z,2.62
2019-03-24T20:14:27.895Z,2.85
2019-03-24T20:16:59.300Z,1.80
2019-03-24T20:19:29.725Z,1.65
2019-03-24T20:22:00.076Z,4.78
2019-03-24T20:24:30.581Z,2.60
2019-03-24T20:27:00.924Z,2.52
2019-03-24T20:29:31.386Z,2.67
2019-03-24T20:32:01.765Z,2.55
2019-03-24T20:34:32.549Z,2.47
2019-03-24T20:37:02.858Z,1.95
2019-03-24T20:39:34.680Z,1.65
2019-03-24T20:42:05.835Z,1.27
2019-03-24T20:44:36.165Z,1.37
2019-03-24T20:47:06.520Z,2.15
2019-03-24T20:49:37.074Z,3.40
2019-03-24T20:52:07.509Z,4.25
2019-03-24T20:54:37.829Z,2.85
2019-03-24T20:57:08.458Z,3.52
2019-03-24T20:59:38.983Z,2.65
2019-03-24T21:02:09.336Z,4.15
2019-03-24T21:04:40.222Z,3.55
2019-03-24T21:07:10.587Z,2.92
2019-03-24T21:09:40.993Z,3.40
2019-03-24T21:12:11.462Z,3.47
2019-03-24T21:14:41.784Z,1.70
2019-03-24T21:17:12.178Z,2.08
2019-03-24T21:19:44.891Z,5.50
2019-03-24T21:22:15.682Z,4.83
2019-03-24T21:24:46.259Z,5.17
2019-03-24T21:27:16.656Z,4.78
2019-03-24T21:29:47.104Z,2.90
2019-03-24T21:32:17.491Z,4.37
2019-03-24T21:34:47.771Z,4.30
2019-03-24T21:37:18.222Z,5.05
2019-03-24T21:39:48.796Z,3.60
2019-03-24T21:42:19.145Z,6.58
2019-03-24T21:44:49.688Z,3.75
2019-03-24T21:47:19.998Z,4.58
2019-03-24T21:49:50.331Z,7.03
2019-03-24T21:52:20.657Z,2.55
2019-03-24T21:54:51.483Z,3.47
2019-03-24T21:57:21.865Z,3.83
2019-03-24T21:59:52.233Z,0.98
2019-03-24T22:02:22.678Z,4.50
2019-03-24T22:04:55.878Z,3.87
2019-03-24T22:07:25.371Z,1.52
2019-03-24T22:09:55.785Z,3.72
2019-03-24T22:12:26.083Z,2.62
2019-03-24T22:14:56.533Z,4.37
2019-03-24T22:17:27.054Z,4.47
2019-03-24T22:19:57.702Z,7.42
2019-03-24T22:22:28.309Z,6.08
2019-03-24T22:24:58.891Z,2.52
2019-03-24T22:27:29.182Z,1.10
2019-03-24T22:29:59.552Z,3.02
2019-03-24T22:32:29.978Z,2.75
2019-03-24T22:35:00.458Z,2.77
2019-03-24T22:37:30.956Z,2.33
2019-03-24T22:40:01.293Z,1.98
2019-03-24T22:42:31.608Z,3.33
2019-03-24T22:45:01.991Z,2.65
2019-03-24T22:47:32.397Z,4.42
2019-03-24T22:50:02.725Z,3.52
2019-03-24T22:52:33.119Z,2.55
2019-03-24T22:55:03.566Z,2.92
2019-03-24T22:57:34.249Z,1.62
2019-03-24T23:00:06.978Z,2.33
2019-03-24T23:02:38.323Z,4.30
2019-03-24T23:05:09.028Z,5.08
2019-03-24T23:07:39.303Z,4.00
2019-03-24T23:10:09.772Z,2.87
2019-03-24T23:12:40.077Z,6.33
2019-03-24T23:15:10.883Z,6.10
2019-03-24T23:17:41.358Z,3.80
2019-03-24T23:20:12.013Z,7.65
2019-03-24T23:22:42.467Z,5.25
2019-03-24T23:25:13.057Z,1.80
2019-03-24T23:27:44.494Z,5.92
2019-03-24T23:30:15.086Z,4.90
2019-03-24T23:32:45.555Z,4.25
2019-03-24T23:35:16.073Z,4.58
2019-03-24T23:37:46.378Z,3.40
2019-03-24T23:40:17.109Z,4.83
2019-03-24T23:42:47.682Z,5.12
2019-03-24T23:45:18.051Z,2.30
2019-03-24T23:47:48.434Z,3.67
2019-03-24T23:50:18.898Z,5.97
2019-03-24T23:52:49.264Z,2.17
2019-03-24T23:55:19.665Z,4.87
2019-03-24T23:57:50.093Z,3.33
